Time;durP1;ratioP1;P1;durP2;ratioP2;P2;SDS_P1;SDS_P2;PMS_P1;PMS_P2;Temp;Humidity;BMP_temperature;BMP_pressure;BME280_temperature;BME280_humidity;BME280_pressure;Samples;Min_cycle;Max_cycle;Signal;HPM_P1;HPM_P2
2022/09/03 00:01:12;;;;;;;5.63;4.78;;;15.00;99.90;;;;;;5090004;28;20097;-68
2022/09/03 00:04:05;;;;;;;4.95;4.50;;;15.00;99.90;;;;;;5052049;28;20671;-68
2022/09/03 00:07:05;;;;;;;6.43;4.78;;;14.90;99.90;;;;;;5085358;28;20078;-69
2022/09/03 00:09:46;;;;;;;4.80;4.30;;;14.90;99.90;;;;;;5090008;28;20039;-67
2022/09/03 00:12:27;;;;;;;5.30;4.50;;;14.90;99.90;;;;;;5097960;28;20039;-68
2022/09/03 00:15:17;;;;;;;4.80;4.35;;;14.90;99.90;;;;;;5093590;28;20565;-68
2022/09/03 00:18:06;;;;;;;6.22;4.53;;;14.80;99.90;;;;;;5101753;28;20047;-68
2022/09/03 00:20:41;;;;;;;5.25;4.40;;;14.80;99.90;;;;;;5077932;28;20048;-69
2022/09/03 00:23:21;;;;;;;6.63;4.50;;;14.80;99.90;;;;;;5090338;28;20054;-69
2022/09/03 00:25:58;;;;;;;5.38;4.30;;;14.70;99.90;;;;;;5091825;28;20099;-69
2022/09/03 00:28:32;;;;;;;5.57;4.53;;;14.70;99.90;;;;;;5091899;28;20409;-70
2022/09/03 00:31:31;;;;;;;5.82;4.38;;;14.70;99.90;;;;;;5078092;28;20158;-69
2022/09/03 00:34:09;;;;;;;7.10;4.50;;;14.60;99.90;;;;;;5104644;27;20062;-69
2022/09/03 00:36:44;;;;;;;5.20;4.45;;;14.60;99.90;;;;;;5098287;28;20607;-68
2022/09/03 00:39:17;;;;;;;4.70;4.20;;;14.60;99.90;;;;;;5085945;28;20089;-69
2022/09/03 00:42:27;;;;;;;6.30;4.60;;;14.60;99.90;;;;;;5100429;28;20394;-68
2022/09/03 00:45:30;;;;;;;4.68;4.28;;;14.50;99.90;;;;;;5076434;28;20059;-68
2022/09/03 00:48:22;;;;;;;4.25;3.85;;;14.50;99.90;;;;;;5086108;28;20510;-67
2022/09/03 00:51:07;;;;;;;5.32;4.75;;;14.40;99.90;;;;;;5089952;28;20520;-69
2022/09/03 00:53:53;;;;;;;5.57;4.60;;;14.40;99.90;;;;;;5089115;28;20457;-69
2022/09/03 00:56:43;;;;;;;5.15;4.65;;;14.40;99.90;;;;;;5101896;28;20044;-68
2022/09/03 00:59:28;;;;;;;6.05;4.43;;;14.40;99.90;;;;;;5087786;28;20512;-68
2022/09/03 01:02:13;;;;;;;5.13;4.43;;;14.40;99.90;;;;;;5074077;28;20478;-69
2022/09/03 01:05:03;;;;;;;4.80;4.40;;;14.40;99.90;;;;;;5085738;28;20154;-68
2022/09/03 01:07:57;;;;;;;4.88;4.35;;;14.30;99.90;;;;;;5114004;27;20441;-70
2022/09/03 01:10:43;;;;;;;;;;;14.30;99.90;;;;;;5076180;28;20040;-69
2022/09/03 01:13:20;;;;;;;5.53;4.10;;;14.30;99.90;;;;;;5103108;28;19928;-69
2022/09/03 01:15:50;;;;;;;6.82;4.10;;;14.30;99.90;;;;;;5088649;28;20044;-69
2022/09/03 01:18:38;;;;;;;5.07;4.20;;;14.20;99.90;;;;;;5102718;28;20039;-69
2022/09/03 01:21:58;;;;;;;5.18;4.55;;;14.20;99.90;;;;;;5079346;28;20040;-69
2022/09/03 01:24:46;;;;;;;5.03;4.53;;;14.20;99.90;;;;;;5018922;28;20140;-69
2022/09/03 01:27:38;;;;;;;5.95;4.30;;;14.10;99.90;;;;;;5037495;28;20168;-69
2022/09/03 01:30:11;;;;;;;5.43;4.47;;;14.10;99.90;;;;;;5007533;28;20053;-69
2022/09/03 01:33:28;;;;;;;6.05;4.43;;;14.10;99.90;;;;;;5009191;28;20606;-69
2022/09/03 01:36:22;;;;;;;5.03;4.30;;;14.10;99.90;;;;;;4963374;28;20055;-69
2022/09/03 01:38:55;;;;;;;8.02;4.43;;;14.10;99.90;;;;;;4962844;28;20524;-69
2022/09/03 01:44:26;;;;;;;6.43;4.22;;;14.00;99.90;;;;;;4961954;28;20074;-69
2022/09/03 01:47:21;;;;;;;5.07;4.30;;;14.00;99.90;;;;;;4966659;28;20057;-69
2022/09/03 01:50:16;;;;;;;5.05;4.32;;;14.00;99.90;;;;;;4961471;28;20118;-69
2022/09/03 01:52:49;;;;;;;8.18;4.35;;;13.90;99.90;;;;;;4946615;28;20442;-69
2022/09/03 01:55:57;;;;;;;4.78;4.38;;;13.90;99.90;;;;;;4986946;28;20472;-69
2022/09/03 01:58:41;;;;;;;4.75;4.35;;;13.90;99.90;;;;;;5023775;28;20049;-67
2022/09/03 02:01:54;;;;;;;5.25;4.63;;;13.90;99.90;;;;;;5032576;28;20049;-68
2022/09/03 02:04:25;;;;;;;4.90;4.50;;;13.90;99.90;;;;;;4962941;28;20051;-67
2022/09/03 02:06:56;;;;;;;6.13;4.30;;;13.90;99.90;;;;;;4939626;29;20054;-68
2022/09/03 02:09:23;;;;;;;6.45;4.60;;;13.80;99.90;;;;;;4929859;29;20054;-68
2022/09/03 02:12:15;;;;;;;5.30;4.47;;;13.80;99.90;;;;;;4969365;28;20488;-68
2022/09/03 02:14:42;;;;;;;6.43;4.45;;;13.80;99.90;;;;;;5007581;28;20046;-68
2022/09/03 02:17:10;;;;;;;5.50;4.15;;;13.80;99.90;;;;;;5003607;28;20544;-68
2022/09/03 02:19:38;;;;;;;4.88;4.32;;;13.80;99.90;;;;;;5003822;28;20053;-69
2022/09/03 02:22:05;;;;;;;4.80;4.30;;;13.70;99.90;;;;;;5008889;28;20130;-69
2022/09/03 02:24:33;;;;;;;5.20;4.70;;;13.70;99.90;;;;;;4991795;28;20054;-71
2022/09/03 02:27:01;;;;;;;4.90;4.50;;;13.70;99.90;;;;;;5019012;28;20137;-69
2022/09/03 02:29:29;;;;;;;4.80;4.30;;;13.60;99.90;;;;;;5002515;28;20056;-69
2022/09/03 02:31:57;;;;;;;5.45;4.50;;;13.60;99.90;;;;;;5007873;28;20132;-69
2022/09/03 02:34:24;;;;;;;5.13;4.63;;;13.50;99.90;;;;;;5031741;28;20534;-69
2022/09/03 02:36:53;;;;;;;5.03;4.63;;;13.50;99.90;;;;;;5086536;28;20514;-69
2022/09/03 02:39:20;;;;;;;5.20;4.43;;;13.50;99.90;;;;;;5082883;28;20414;-69
2022/09/03 02:41:54;;;;;;;5.93;5.32;;;13.50;99.90;;;;;;5091464;28;20048;-69
2022/09/03 02:44:31;;;;;;;5.35;4.47;;;13.40;99.90;;;;;;5110983;27;20066;-67
2022/09/03 02:47:05;;;;;;;6.32;4.55;;;13.50;99.90;;;;;;5093710;28;20067;-68
2022/09/03 02:49:33;;;;;;;4.90;4.40;;;13.50;99.90;;;;;;5093681;28;20060;-69
2022/09/03 02:52:08;;;;;;;4.90;4.40;;;13.40;99.90;;;;;;5100047;28;20059;-69
2022/09/03 02:54:38;;;;;;;5.05;4.45;;;13.40;99.90;;;;;;5104441;28;20036;-68
2022/09/03 02:57:08;;;;;;;5.30;4.10;;;13.40;99.90;;;;;;5091797;28;20044;-69
2022/09/03 02:59:35;;;;;;;8.50;5.10;;;13.40;99.90;;;;;;5095171;28;20044;-69
2022/09/03 03:02:03;;;;;;;8.88;4.65;;;13.40;99.90;;;;;;5098275;28;20074;-69
2022/09/03 03:04:32;;;;;;;6.05;4.25;;;13.40;99.90;;;;;;5097558;28;20859;-69
2022/09/03 03:06:59;;;;;;;7.25;4.50;;;13.40;99.90;;;;;;5089308;28;20467;-68
2022/09/03 03:09:27;;;;;;;7.95;4.60;;;13.40;99.90;;;;;;5092843;28;20040;-69
2022/09/03 03:11:55;;;;;;;6.20;4.85;;;13.30;99.90;;;;;;5120420;27;20047;-68
2022/09/03 03:14:22;;;;;;;6.22;5.00;;;13.30;99.90;;;;;;5091866;28;20461;-68
2022/09/03 03:16:50;;;;;;;5.20;4.70;;;13.30;99.90;;;;;;5082147;28;20061;-68
2022/09/03 03:19:17;;;;;;;6.72;4.93;;;13.30;99.90;;;;;;5109838;27;20135;-68
2022/09/03 03:21:45;;;;;;;6.28;4.40;;;13.30;99.90;;;;;;5095711;28;20479;-68
2022/09/03 03:24:12;;;;;;;5.25;4.70;;;13.30;99.90;;;;;;5104975;28;20040;-68
2022/09/03 03:26:40;;;;;;;5.05;4.60;;;13.20;99.90;;;;;;5090564;28;20447;-68
2022/09/03 03:29:13;;;;;;;5.57;4.25;;;13.30;99.90;;;;;;5099826;28;20047;-68
2022/09/03 03:31:40;;;;;;;5.53;4.60;;;13.20;99.90;;;;;;5099466;28;20036;-68
2022/09/03 03:34:07;;;;;;;6.95;4.90;;;13.20;99.90;;;;;;5090510;28;20443;-69
2022/09/03 03:36:35;;;;;;;5.68;4.57;;;13.10;99.90;;;;;;5079177;28;20584;-68
2022/09/03 03:39:03;;;;;;;5.60;4.60;;;13.10;99.90;;;;;;5068417;28;20555;-68
2022/09/03 03:41:32;;;;;;;5.68;4.65;;;13.10;99.90;;;;;;5076093;28;20048;-68
2022/09/03 03:44:03;;;;;;;6.03;4.82;;;13.10;99.90;;;;;;5089264;28;20127;-68
2022/09/03 03:46:41;;;;;;;4.85;4.30;;;13.00;99.90;;;;;;5105432;28;20542;-69
2022/09/03 03:49:09;;;;;;;4.65;4.25;;;13.00;99.90;;;;;;5090030;28;20043;-68
2022/09/03 03:51:37;;;;;;;4.78;4.05;;;13.00;99.90;;;;;;5064611;28;20046;-68
2022/09/03 03:54:04;;;;;;;4.97;4.47;;;13.00;99.90;;;;;;5100176;28;20046;-68
2022/09/03 03:56:33;;;;;;;5.35;4.30;;;13.00;99.90;;;;;;5096447;28;20079;-68
2022/09/03 03:59:01;;;;;;;6.38;4.60;;;13.00;99.90;;;;;;5101957;28;20747;-69
2022/09/03 04:01:28;;;;;;;6.35;4.60;;;13.00;99.90;;;;;;5100096;28;20150;-68
2022/09/03 04:03:58;;;;;;;5.13;4.30;;;13.00;99.90;;;;;;5104885;28;20062;-68
2022/09/03 04:06:27;;;;;;;6.30;4.40;;;13.00;99.90;;;;;;5090857;28;20051;-68
2022/09/03 04:08:54;;;;;;;7.35;4.72;;;12.90;99.90;;;;;;5106099;28;20078;-68
2022/09/03 04:11:24;;;;;;;6.95;4.50;;;13.00;99.90;;;;;;5103268;28;20510;-69
2022/09/03 04:13:51;;;;;;;4.43;3.97;;;13.00;99.90;;;;;;5105443;28;20131;-68
2022/09/03 04:16:21;;;;;;;5.53;4.20;;;13.00;99.90;;;;;;5099108;28;20046;-69
2022/09/03 04:18:49;;;;;;;5.88;4.55;;;12.90;99.90;;;;;;5094033;28;20043;-69
2022/09/03 04:21:22;;;;;;;7.45;4.45;;;12.90;99.90;;;;;;5105297;28;20412;-69
2022/09/03 04:23:50;;;;;;;4.93;4.43;;;12.90;99.90;;;;;;5105561;28;20119;-69
2022/09/03 04:26:21;;;;;;;6.13;4.20;;;12.90;99.90;;;;;;5108672;28;20051;-69
2022/09/03 04:28:48;;;;;;;6.32;4.50;;;13.00;99.90;;;;;;5099459;28;20043;-68
2022/09/03 04:31:18;;;;;;;7.97;4.30;;;12.90;99.90;;;;;;5089445;28;20052;-68
2022/09/03 04:33:46;;;;;;;5.18;4.20;;;13.00;99.90;;;;;;5079474;28;20138;-69
2022/09/03 04:36:16;;;;;;;4.60;4.20;;;13.00;99.90;;;;;;5101258;28;20104;-69
2022/09/03 04:38:45;;;;;;;8.07;4.72;;;13.10;99.90;;;;;;5096309;28;20044;-69
2022/09/03 04:41:15;;;;;;;4.40;4.00;;;13.00;99.90;;;;;;5061830;28;20469;-68
2022/09/03 04:43:43;;;;;;;4.65;4.10;;;13.10;99.90;;;;;;5090094;28;20052;-69
2022/09/03 04:46:15;;;;;;;5.43;4.50;;;13.10;99.90;;;;;;5108447;27;20039;-68
2022/09/03 04:48:49;;;;;;;5.03;4.40;;;13.10;99.90;;;;;;5082834;28;20133;-68
2022/09/03 04:51:20;;;;;;;6.05;4.55;;;13.10;99.90;;;;;;5101539;28;20039;-69
2022/09/03 04:53:52;;;;;;;4.80;4.30;;;13.20;99.90;;;;;;5081370;28;20437;-68
2022/09/03 04:56:21;;;;;;;;;;;13.20;99.90;;;;;;5091189;28;20055;-67
2022/09/03 04:58:55;;;;;;;7.32;4.80;;;13.30;99.90;;;;;;5088422;28;19934;-68
2022/09/03 05:01:25;;;;;;;5.03;4.45;;;13.30;99.90;;;;;;5082111;28;20477;-69
2022/09/03 05:03:55;;;;;;;4.75;4.20;;;13.30;99.90;;;;;;5091215;28;20047;-69
2022/09/03 05:06:24;;;;;;;5.30;4.40;;;13.40;99.90;;;;;;5079779;28;20067;-69
2022/09/03 05:08:53;;;;;;;5.63;4.57;;;13.40;99.90;;;;;;5099639;27;20047;-68
2022/09/03 05:11:21;;;;;;;7.78;4.47;;;13.50;99.90;;;;;;5090768;28;20147;-68
2022/09/03 05:13:51;;;;;;;5.00;4.50;;;13.50;99.90;;;;;;5103753;28;20082;-68
2022/09/03 05:16:18;;;;;;;5.78;4.25;;;13.50;99.90;;;;;;5099336;28;20040;-68
2022/09/03 05:18:47;;;;;;;9.07;4.43;;;13.60;99.90;;;;;;5091571;28;20502;-67
2022/09/03 05:21:17;;;;;;;5.65;4.45;;;13.60;99.90;;;;;;5106866;27;20051;-68
2022/09/03 05:23:46;;;;;;;6.25;4.53;;;13.60;99.90;;;;;;5090981;28;20556;-68
2022/09/03 05:26:18;;;;;;;6.18;4.22;;;13.70;99.90;;;;;;5090035;28;20135;-68
2022/09/03 05:28:47;;;;;;;5.63;4.82;;;13.70;99.90;;;;;;5091928;28;20148;-68
2022/09/03 05:31:16;;;;;;;4.80;4.30;;;13.80;99.90;;;;;;5093464;28;20528;-69
2022/09/03 05:33:49;;;;;;;6.78;4.22;;;13.90;99.90;;;;;;5102012;28;20040;-68
2022/09/03 05:36:19;;;;;;;5.85;4.57;;;13.90;99.90;;;;;;5089730;28;20043;-68
2022/09/03 05:38:46;;;;;;;5.32;4.82;;;13.90;99.90;;;;;;5084295;28;20071;-68
2022/09/03 05:41:15;;;;;;;6.70;4.90;;;14.00;99.90;;;;;;5089861;28;20070;-68
2022/09/03 05:43:53;;;;;;;7.05;4.53;;;14.10;99.90;;;;;;5095058;28;20363;-67
2022/09/03 05:46:25;;;;;;;7.90;5.43;;;14.20;99.90;;;;;;5103089;28;20039;-68
2022/09/03 05:48:52;;;;;;;5.35;4.72;;;14.30;99.90;;;;;;5090872;28;20409;-67
2022/09/03 05:51:20;;;;;;;5.28;4.72;;;14.40;99.90;;;;;;5086251;28;20428;-68
2022/09/03 05:53:48;;;;;;;5.53;4.70;;;14.50;99.90;;;;;;5111546;28;20041;-69
2022/09/03 05:56:18;;;;;;;5.85;4.70;;;14.60;99.90;;;;;;5087533;28;20048;-68
2022/09/03 05:58:48;;;;;;;5.35;4.72;;;14.60;99.90;;;;;;5098853;28;20096;-68
2022/09/03 06:01:27;;;;;;;5.32;4.82;;;14.60;99.90;;;;;;5093102;28;20040;-67
2022/09/03 06:04:00;;;;;;;5.82;4.75;;;14.70;99.90;;;;;;5081076;28;20101;-68
2022/09/03 06:06:30;;;;;;;5.30;4.68;;;14.80;99.90;;;;;;5070541;28;20055;-68
2022/09/03 06:09:01;;;;;;;5.10;4.70;;;14.90;99.90;;;;;;5105158;28;20543;-68
2022/09/03 06:11:29;;;;;;;6.72;5.45;;;15.00;99.90;;;;;;5112108;28;20064;-68
2022/09/03 06:14:00;;;;;;;5.63;5.07;;;15.10;99.90;;;;;;5104460;28;20052;-67
2022/09/03 06:16:28;;;;;;;6.45;5.03;;;15.20;99.90;;;;;;5104540;28;20048;-68
2022/09/03 06:18:58;;;;;;;6.00;4.88;;;15.30;99.90;;;;;;5089052;28;20071;-67
2022/09/03 06:21:27;;;;;;;5.75;4.93;;;15.30;99.90;;;;;;5103842;28;20405;-68
2022/09/03 06:23:56;;;;;;;6.63;5.10;;;15.40;99.90;;;;;;5081494;28;20155;-68
2022/09/03 06:26:27;;;;;;;5.30;4.80;;;15.50;99.90;;;;;;5076334;28;20048;-69
2022/09/03 06:28:56;;;;;;;7.65;5.38;;;15.60;99.90;;;;;;5075602;28;20386;-69
2022/09/03 06:31:24;;;;;;;6.03;5.00;;;15.70;99.90;;;;;;5074706;28;20072;-70
2022/09/03 06:33:53;;;;;;;5.35;4.85;;;15.80;99.90;;;;;;5087781;28;20310;-69
2022/09/03 06:36:23;;;;;;;5.85;5.13;;;15.90;99.90;;;;;;5090916;28;20526;-69
2022/09/03 06:38:52;;;;;;;7.05;5.10;;;15.90;99.90;;;;;;5090268;28;20124;-69
2022/09/03 06:41:25;;;;;;;5.30;4.80;;;16.00;99.90;;;;;;5088733;28;20413;-68
2022/09/03 06:43:57;;;;;;;6.55;5.18;;;16.10;99.90;;;;;;5083282;28;20144;-67
2022/09/03 06:46:25;;;;;;;5.70;5.20;;;16.20;99.90;;;;;;5076348;28;20048;-68
2022/09/03 06:48:53;;;;;;;6.28;5.50;;;16.20;99.90;;;;;;5071258;28;20041;-68
2022/09/03 06:51:26;;;;;;;5.97;5.00;;;16.20;99.90;;;;;;5053160;28;20081;-69
2022/09/03 06:54:02;;;;;;;9.18;5.20;;;16.40;99.90;;;;;;5085089;28;20048;-69
2022/09/03 06:56:31;;;;;;;7.68;5.22;;;16.60;99.90;;;;;;5071400;28;20052;-69
2022/09/03 06:59:08;;;;;;;5.60;5.05;;;16.80;99.90;;;;;;5071856;28;20150;-70
2022/09/03 07:01:38;;;;;;;6.00;5.00;;;17.00;99.90;;;;;;5079658;28;20530;-69
2022/09/03 07:04:07;;;;;;;8.10;6.85;;;17.10;99.90;;;;;;5084130;28;20113;-69
2022/09/03 07:06:40;;;;;;;8.95;6.85;;;17.20;99.90;;;;;;5089624;28;20078;-69
2022/09/03 07:09:10;;;;;;;6.63;5.32;;;17.30;99.90;;;;;;5091765;28;20390;-69
2022/09/03 07:11:45;;;;;;;5.45;4.90;;;17.30;99.90;;;;;;5109330;27;20043;-69
2022/09/03 07:14:16;;;;;;;5.82;5.22;;;17.40;99.90;;;;;;5093026;28;20044;-69
2022/09/03 07:16:44;;;;;;;7.55;5.28;;;17.50;99.90;;;;;;5081342;28;20044;-70
2022/09/03 07:19:12;;;;;;;5.32;4.80;;;17.50;99.90;;;;;;5112018;27;20075;-69
2022/09/03 07:21:40;;;;;;;5.30;4.80;;;17.40;99.90;;;;;;5119428;27;20161;-69
2022/09/03 07:24:15;;;;;;;6.38;4.90;;;17.60;99.90;;;;;;5123423;27;20398;-69
2022/09/03 07:26:45;;;;;;;7.47;4.93;;;17.80;99.90;;;;;;5117051;27;20557;-69
2022/09/03 07:29:14;;;;;;;7.90;5.80;;;18.00;99.90;;;;;;5086615;28;20573;-70
2022/09/03 07:31:42;;;;;;;5.72;5.20;;;18.20;99.90;;;;;;5097648;28;20416;-69
2022/09/03 07:34:12;;;;;;;5.45;4.95;;;18.40;99.90;;;;;;5090109;28;20036;-70
2022/09/03 07:36:42;;;;;;;5.43;4.93;;;18.60;99.90;;;;;;5077802;28;20078;-70
2022/09/03 07:39:11;;;;;;;6.70;5.40;;;18.70;99.90;;;;;;5105250;28;20086;-70
2022/09/03 07:41:44;;;;;;;6.00;4.88;;;18.90;99.90;;;;;;5089050;28;20506;-70
2022/09/03 07:44:14;;;;;;;6.63;4.80;;;19.10;99.90;;;;;;5090687;28;20122;-70
2022/09/03 07:46:42;;;;;;;5.60;4.88;;;19.30;99.90;;;;;;5055641;28;20055;-70
2022/09/03 07:49:09;;;;;;;5.22;4.72;;;19.40;99.90;;;;;;5106036;28;20040;-71
2022/09/03 07:51:38;;;;;;;5.80;5.10;;;19.60;99.90;;;;;;5089828;27;20052;-71
2022/09/03 07:54:09;;;;;;;8.07;5.70;;;19.70;99.90;;;;;;5088869;28;20482;-69
2022/09/03 07:56:38;;;;;;;;;;;19.90;99.90;;;;;;5088932;28;20044;-69
2022/09/03 07:59:05;;;;;;;6.13;4.80;;;19.70;99.90;;;;;;5088215;28;20397;-69
2022/09/03 08:01:34;;;;;;;5.68;4.80;;;19.60;99.90;;;;;;5089027;28;20048;-69
2022/09/03 08:04:03;;;;;;;8.43;5.32;;;19.60;99.90;;;;;;5060837;28;20079;-69
2022/09/03 08:06:39;;;;;;;8.55;6.63;;;19.60;99.90;;;;;;5087616;28;20039;-69
2022/09/03 08:09:10;;;;;;;6.65;5.82;;;19.70;99.90;;;;;;5105496;28;20055;-68
2022/09/03 08:11:39;;;;;;;6.78;5.43;;;19.90;99.90;;;;;;5086154;28;20506;-69
2022/09/03 08:14:09;;;;;;;5.38;4.88;;;20.00;99.90;;;;;;5083384;28;20040;-69
2022/09/03 08:16:46;;;;;;;7.63;5.15;;;20.00;99.90;;;;;;5083537;28;20048;-69
2022/09/03 08:19:17;;;;;;;5.65;5.10;;;20.30;99.90;;;;;;5112371;27;20071;-70
2022/09/03 08:21:44;;;;;;;8.90;5.50;;;20.60;99.90;;;;;;5101522;28;20113;-69
2022/09/03 08:24:14;;;;;;;7.50;5.50;;;20.90;99.90;;;;;;5096074;27;20043;-69
2022/09/03 08:26:42;;;;;;;5.90;5.35;;;21.10;99.90;;;;;;5092889;28;20581;-69
2022/09/03 08:29:18;;;;;;;9.45;5.60;;;21.30;99.90;;;;;;5092179;27;20043;-69
2022/09/03 08:31:45;;;;;;;7.20;4.95;;;21.40;99.90;;;;;;5101672;28;20044;-69
2022/09/03 08:34:13;;;;;;;5.30;4.80;;;21.60;99.90;;;;;;5107408;27;20506;-69
2022/09/03 08:36:41;;;;;;;10.30;7.80;;;21.70;99.90;;;;;;5097260;28;20044;-70
2022/09/03 08:39:10;;;;;;;7.03;5.32;;;21.70;99.90;;;;;;5093577;28;20780;-69
2022/09/03 08:41:52;;;;;;;10.40;5.05;;;22.10;99.90;;;;;;5089286;28;20052;-69
2022/09/03 08:44:27;;;;;;;5.63;4.90;;;22.20;99.90;;;;;;5085283;28;20055;-69
2022/09/03 08:47:09;;;;;;;7.40;5.00;;;22.50;99.90;;;;;;5089423;28;20754;-69
2022/09/03 08:49:58;;;;;;;7.28;5.10;;;22.70;99.90;;;;;;5102053;28;20054;-70
2022/09/03 08:52:33;;;;;;;7.05;5.18;;;22.90;99.90;;;;;;5107544;28;20118;-68
2022/09/03 08:55:32;;;;;;;8.02;5.10;;;23.10;99.90;;;;;;5081968;28;20040;-68
2022/09/03 08:58:09;;;;;;;9.82;5.00;;;23.10;99.90;;;;;;5103375;28;20088;-69
2022/09/03 09:01:10;;;;;;;5.10;4.65;;;23.10;99.90;;;;;;5099378;28;20044;-69
2022/09/03 09:03:46;;;;;;;9.35;5.00;;;23.10;99.90;;;;;;5088375;28;20047;-69
2022/09/03 09:06:30;;;;;;;6.20;4.60;;;23.30;99.90;;;;;;5070000;28;20479;-68
2022/09/03 09:09:30;;;;;;;5.32;4.82;;;23.10;99.90;;;;;;5102175;27;20059;-68
2022/09/03 09:12:29;;;;;;;6.40;4.40;;;23.00;99.90;;;;;;5017764;28;20559;-68
2022/09/03 09:15:31;;;;;;;6.20;5.60;;;22.80;99.90;;;;;;5022332;28;20084;-68
2022/09/03 09:18:19;;;;;;;5.60;5.10;;;22.70;99.90;;;;;;5008556;28;20480;-69
2022/09/03 09:20:55;;;;;;;5.75;5.00;;;22.60;99.90;;;;;;5020937;28;20069;-68
2022/09/03 09:23:31;;;;;;;7.85;5.35;;;22.70;99.90;;;;;;5006822;28;20517;-69
2022/09/03 09:26:04;;;;;;;6.20;4.95;;;22.80;99.90;;;;;;5024860;28;20132;-68
2022/09/03 09:28:44;;;;;;;6.38;5.78;;;22.70;99.90;;;;;;5024351;28;20046;-69
2022/09/03 09:31:14;;;;;;;5.22;4.72;;;22.80;99.90;;;;;;5009388;28;20128;-69
2022/09/03 09:33:42;;;;;;;7.40;5.40;;;22.80;99.90;;;;;;5012621;28;20543;-69
2022/09/03 09:36:18;;;;;;;5.70;5.10;;;22.90;99.90;;;;;;5007554;28;20410;-70
2022/09/03 09:38:46;;;;;;;5.28;4.60;;;22.90;99.90;;;;;;5006763;28;20041;-70
2022/09/03 09:41:20;;;;;;;9.70;4.75;;;22.90;99.90;;;;;;5011076;28;20042;-69
2022/09/03 09:44:04;;;;;;;7.03;4.75;;;22.80;99.90;;;;;;5024097;28;20060;-69
2022/09/03 09:46:39;;;;;;;7.22;4.60;;;22.90;99.90;;;;;;5029825;28;20134;-68
2022/09/03 09:49:32;;;;;;;4.93;4.35;;;22.90;99.90;;;;;;5057343;28;20044;-69
2022/09/03 09:52:12;;;;;;;5.28;4.30;;;23.00;99.90;;;;;;5066087;28;20051;-69
2022/09/03 09:54:41;;;;;;;6.88;4.80;;;23.30;99.90;;;;;;5084815;28;20146;-69
2022/09/03 09:57:21;;;;;;;5.40;4.85;;;23.40;99.90;;;;;;5089826;28;20040;-69
2022/09/03 09:59:49;;;;;;;6.78;4.68;;;23.40;99.90;;;;;;5088517;28;20470;-68
2022/09/03 10:02:27;;;;;;;5.82;4.25;;;23.40;99.90;;;;;;5086709;28;20043;-69
2022/09/03 10:05:29;;;;;;;7.53;4.63;;;23.60;99.90;;;;;;5091247;28;20115;-67
2022/09/03 10:08:06;;;;;;;8.05;4.97;;;23.60;99.90;;;;;;5086699;28;20127;-67
2022/09/03 10:10:40;;;;;;;5.30;4.80;;;23.50;99.90;;;;;;5094937;28;20147;-68
2022/09/03 10:13:18;;;;;;;5.28;4.78;;;23.30;99.90;;;;;;5096547;28;20501;-67
2022/09/03 10:15:50;;;;;;;5.95;4.40;;;23.40;99.90;;;;;;5099906;28;20439;-68
2022/09/03 10:18:33;;;;;;;5.55;4.70;;;23.50;99.90;;;;;;5091600;28;20486;-67
2022/09/03 10:21:11;;;;;;;6.70;4.72;;;23.60;99.90;;;;;;5092956;28;20139;-68
2022/09/03 10:24:00;;;;;;;5.88;4.88;;;23.70;99.90;;;;;;5095626;28;20047;-68
2022/09/03 10:26:35;;;;;;;5.15;4.65;;;23.70;99.90;;;;;;5088505;28;20452;-68
2022/09/03 10:29:05;;;;;;;7.35;4.82;;;24.00;99.90;;;;;;5090073;28;20119;-68
2022/09/03 10:32:08;;;;;;;6.55;4.68;;;24.40;99.90;;;;;;5096328;28;20089;-68
2022/09/03 10:35:00;;;;;;;5.85;4.88;;;24.80;99.90;;;;;;5082872;28;20044;-68
2022/09/03 10:37:46;;;;;;;5.53;4.80;;;25.00;99.90;;;;;;5094187;28;20044;-69
2022/09/03 10:40:48;;;;;;;7.50;4.20;;;25.20;99.90;;;;;;5093296;28;20078;-68
2022/09/03 10:43:30;;;;;;;6.63;4.80;;;25.30;99.90;;;;;;5090464;28;20090;-68
2022/09/03 10:46:15;;;;;;;7.30;4.65;;;25.60;99.90;;;;;;5089577;28;20052;-69
2022/09/03 10:49:26;;;;;;;5.75;5.13;;;25.90;99.90;;;;;;5121464;27;20054;-69
2022/09/03 10:52:08;;;;;;;7.05;5.60;;;26.60;99.90;;;;;;5094834;28;20064;-69
2022/09/03 10:54:47;;;;;;;;;;;26.90;99.90;;;;;;5087369;28;20486;-69
2022/09/03 10:57:29;;;;;;;7.15;5.00;;;27.80;99.90;;;;;;5096546;28;19950;-69
2022/09/03 11:00:09;;;;;;;8.32;5.35;;;28.40;99.90;;;;;;5117985;27;20051;-68
2022/09/03 11:02:45;;;;;;;6.97;4.50;;;28.50;98.60;;;;;;5074320;28;20059;-70
2022/09/03 11:05:20;;;;;;;5.70;5.20;;;28.30;98.50;;;;;;5076941;28;20094;-69
2022/09/03 11:08:06;;;;;;;5.68;5.18;;;28.40;98.10;;;;;;5057308;28;20431;-70
2022/09/03 11:10:40;;;;;;;5.90;4.90;;;28.80;97.80;;;;;;5068958;28;20052;-69
2022/09/03 11:13:34;;;;;;;6.20;5.07;;;28.70;98.20;;;;;;5088943;28;20040;-68
2022/09/03 11:16:18;;;;;;;5.78;5.28;;;28.60;98.10;;;;;;5084404;28;20047;-68
2022/09/03 11:18:50;;;;;;;6.28;5.43;;;28.80;98.80;;;;;;5078347;28;20585;-69
2022/09/03 11:21:22;;;;;;;5.90;5.30;;;28.70;98.00;;;;;;5066181;28;20076;-71
2022/09/03 11:24:14;;;;;;;6.20;5.10;;;28.40;97.70;;;;;;5097754;28;20426;-70
2022/09/03 11:27:08;;;;;;;6.03;4.80;;;28.20;97.70;;;;;;5097060;28;20052;-70
2022/09/03 11:29:54;;;;;;;6.40;4.90;;;28.10;97.90;;;;;;5060344;28;20048;-69
2022/09/03 11:32:26;;;;;;;5.72;5.10;;;28.40;98.20;;;;;;5072507;28;20041;-74
2022/09/03 11:34:54;;;;;;;5.45;4.95;;;28.70;97.50;;;;;;5072494;28;20703;-68
2022/09/03 11:37:24;;;;;;;7.70;5.03;;;28.80;97.40;;;;;;5071478;28;20045;-69
2022/09/03 11:40:20;;;;;;;5.30;4.80;;;28.50;97.50;;;;;;5097326;28;20411;-68
2022/09/03 11:42:48;;;;;;;6.43;4.80;;;28.60;97.50;;;;;;5087169;28;20487;-72
2022/09/03 11:45:23;;;;;;;6.47;5.05;;;28.60;97.70;;;;;;5084631;28;20147;-68
2022/09/03 11:47:52;;;;;;;6.50;5.07;;;28.20;98.40;;;;;;5089324;28;20049;-68
2022/09/03 11:50:22;;;;;;;5.75;5.20;;;28.20;99.00;;;;;;5080552;28;20035;-69
2022/09/03 11:52:55;;;;;;;6.35;5.00;;;28.40;98.80;;;;;;5114023;27;20150;-68
2022/09/03 11:55:47;;;;;;;5.35;4.85;;;28.60;98.30;;;;;;5090928;28;20464;-68
2022/09/03 11:58:23;;;;;;;6.10;5.55;;;28.80;97.90;;;;;;5093067;28;20043;-68
2022/09/03 12:00:52;;;;;;;6.15;5.55;;;29.10;97.50;;;;;;5094978;28;20040;-68
2022/09/03 12:03:35;;;;;;;5.35;4.85;;;29.30;97.30;;;;;;5080087;28;20199;-71
2022/09/03 12:06:28;;;;;;;5.95;5.35;;;29.70;97.20;;;;;;5081075;28;20464;-68
2022/09/03 12:09:13;;;;;;;6.47;5.32;;;29.80;96.20;;;;;;5095833;28;20494;-70
2022/09/03 12:11:59;;;;;;;6.70;5.18;;;29.60;96.60;;;;;;5100085;28;20657;-69
2022/09/03 12:14:39;;;;;;;6.97;5.88;;;29.80;96.60;;;;;;5094163;28;20517;-67
2022/09/03 12:17:45;;;;;;;6.47;5.47;;;30.20;95.80;;;;;;5088446;28;20510;-68
2022/09/03 12:20:14;;;;;;;6.07;5.30;;;30.50;95.40;;;;;;5010034;28;20437;-70
2022/09/03 12:22:42;;;;;;;6.35;5.65;;;31.30;94.10;;;;;;5007701;28;20056;-68
2022/09/03 12:25:12;;;;;;;5.65;5.13;;;31.20;93.90;;;;;;5023442;28;20060;-69
2022/09/03 12:27:44;;;;;;;5.30;4.80;;;31.20;93.40;;;;;;5020948;28;20061;-69
2022/09/03 12:30:21;;;;;;;6.00;5.40;;;31.30;93.50;;;;;;5022659;28;20583;-69
2022/09/03 12:32:50;;;;;;;6.13;5.43;;;31.80;92.60;;;;;;5006195;28;20528;-69
2022/09/03 12:35:19;;;;;;;6.50;5.25;;;32.00;92.10;;;;;;5018472;28;20053;-69
2022/09/03 12:38:06;;;;;;;5.70;5.20;;;32.10;91.50;;;;;;5021618;28;20132;-69
2022/09/03 12:40:42;;;;;;;7.47;6.57;;;31.80;91.20;;;;;;5003867;28;20049;-69
2022/09/03 12:43:29;;;;;;;5.63;5.13;;;31.80;91.30;;;;;;5011274;28;20059;-69
2022/09/03 12:46:14;;;;;;;5.22;4.80;;;32.00;90.70;;;;;;5006199;28;20108;-69
2022/09/03 12:48:54;;;;;;;7.90;5.15;;;32.00;90.80;;;;;;5009155;28;20053;-70
2022/09/03 12:51:44;;;;;;;6.43;5.20;;;32.60;90.50;;;;;;5009461;28;20057;-70
2022/09/03 12:54:21;;;;;;;5.82;5.10;;;33.30;89.10;;;;;;4995087;28;20056;-68
2022/09/03 12:56:57;;;;;;;5.78;5.18;;;33.60;87.60;;;;;;5027709;28;20542;-69
2022/09/03 12:59:28;;;;;;;6.45;5.22;;;33.00;87.60;;;;;;5091973;28;20067;-68
2022/09/03 13:02:00;;;;;;;6.00;4.87;;;32.20;88.70;;;;;;5093514;28;20044;-69
2022/09/03 13:04:32;;;;;;;5.63;5.13;;;31.60;89.30;;;;;;5094193;28;20348;-69
2022/09/03 13:07:11;;;;;;;6.72;5.15;;;31.00;90.20;;;;;;5087294;28;20040;-70
2022/09/03 13:09:41;;;;;;;6.15;5.50;;;30.60;90.70;;;;;;5091655;28;20048;-69
2022/09/03 13:12:21;;;;;;;6.32;5.40;;;29.60;91.80;;;;;;5103181;28;20556;-69
2022/09/03 13:14:49;;;;;;;5.43;4.88;;;28.90;93.10;;;;;;5088531;28;20044;-68
2022/09/03 13:17:40;;;;;;;6.28;5.40;;;28.40;93.60;;;;;;5089247;28;20070;-69
2022/09/03 13:20:37;;;;;;;7.85;5.70;;;27.80;94.60;;;;;;5097093;28;20043;-68
2022/09/03 13:23:23;;;;;;;6.43;5.20;;;27.50;95.20;;;;;;5088277;28;20593;-68
2022/09/03 13:26:13;;;;;;;5.90;5.40;;;27.00;96.00;;;;;;5090502;28;20055;-68
2022/09/03 13:28:57;;;;;;;6.30;5.70;;;26.80;96.50;;;;;;5114537;27;20047;-69
2022/09/03 13:31:42;;;;;;;6.47;5.78;;;26.50;97.00;;;;;;5104817;28;20048;-68
2022/09/03 13:34:23;;;;;;;6.78;6.03;;;26.00;98.20;;;;;;5088834;28;20068;-69
2022/09/03 13:37:07;;;;;;;6.35;5.40;;;25.80;98.70;;;;;;5098073;28;20430;-69